Time;durP1;ratioP1;P1;durP2;ratioP2;P2;SDS_P1;SDS_P2;PMS_P1;PMS_P2;Temp;Humidity;BMP_temperature;BMP_pressure;BME280_temperature;BME280_humidity;BME280_pressure;Samples;Min_cycle;Max_cycle;Signal;HPM_P1;HPM_P2
2022/10/16 00:01:36;;;;;;;10.63;2.72;;;12.60;99.90;;;;;;5050847;28;20033;-64
2022/10/16 00:04:02;;;;;;;5.55;1.83;;;12.60;99.90;;;;;;5051344;28;20045;-64
2022/10/16 00:06:29;;;;;;;8.57;2.13;;;12.50;99.90;;;;;;5050312;28;20041;-64
2022/10/16 00:08:55;;;;;;;14.18;2.75;;;12.50;99.90;;;;;;5049479;28;20485;-64
2022/10/16 00:11:24;;;;;;;9.95;2.17;;;12.50;99.90;;;;;;5050275;28;20481;-64
2022/10/16 00:13:54;;;;;;;9.13;2.22;;;12.40;99.90;;;;;;5033878;28;20485;-64
2022/10/16 00:16:20;;;;;;;6.90;1.88;;;12.40;99.90;;;;;;5049555;28;20148;-64
2022/10/16 00:18:46;;;;;;;9.30;2.05;;;12.30;99.90;;;;;;5086500;28;20052;-64
2022/10/16 00:21:19;;;;;;;8.98;2.25;;;12.30;99.90;;;;;;5087655;28;20127;-64
2022/10/16 00:23:45;;;;;;;7.15;2.10;;;12.30;99.90;;;;;;5053169;28;20047;-64
2022/10/16 00:26:16;;;;;;;5.13;1.83;;;12.30;99.90;;;;;;5053859;28;20048;-64
2022/10/16 00:28:42;;;;;;;9.40;2.00;;;12.30;99.90;;;;;;5055400;28;20068;-64
2022/10/16 00:31:12;;;;;;;7.57;1.95;;;12.30;99.90;;;;;;5053061;28;20502;-64
2022/10/16 00:33:39;;;;;;;8.25;2.30;;;12.30;99.90;;;;;;5053915;28;20033;-64
2022/10/16 00:36:06;;;;;;;8.30;2.08;;;12.30;99.90;;;;;;5054953;28;20040;-64
2022/10/16 00:38:32;;;;;;;5.75;2.40;;;12.20;99.90;;;;;;5069474;28;20056;-64
2022/10/16 00:40:58;;;;;;;5.65;2.10;;;12.30;99.90;;;;;;5070111;28;20033;-64
2022/10/16 00:43:42;;;;;;;7.47;1.80;;;12.20;99.90;;;;;;5087134;28;20053;-64
2022/10/16 00:46:19;;;;;;;7.40;1.90;;;12.20;99.90;;;;;;5053667;28;20033;-64
2022/10/16 00:49:04;;;;;;;6.03;2.08;;;12.20;99.90;;;;;;5053495;28;20037;-64
2022/10/16 00:51:37;;;;;;;6.35;1.98;;;12.20;99.90;;;;;;5052713;28;20048;-64
2022/10/16 00:54:08;;;;;;;9.10;1.90;;;12.20;99.90;;;;;;5054514;28;20071;-64
2022/10/16 00:56:34;;;;;;;10.50;2.58;;;12.20;99.90;;;;;;5036512;28;20052;-64
2022/10/16 00:59:01;;;;;;;5.38;1.63;;;12.10;99.90;;;;;;5053904;28;20386;-64
2022/10/16 01:01:27;;;;;;;7.07;1.63;;;12.20;99.90;;;;;;5053193;28;20041;-64
2022/10/16 01:03:53;;;;;;;6.93;2.47;;;12.10;99.90;;;;;;5053085;28;20116;-64
2022/10/16 01:06:39;;;;;;;9.98;2.30;;;12.20;99.90;;;;;;5085820;28;20124;-64
2022/10/16 01:09:20;;;;;;;8.52;1.88;;;12.20;99.90;;;;;;5053379;28;20454;-64
2022/10/16 01:11:55;;;;;;;8.48;2.72;;;12.20;99.90;;;;;;5053732;28;20112;-64
2022/10/16 01:14:40;;;;;;;9.48;1.88;;;12.10;99.90;;;;;;5069603;28;20041;-64
2022/10/16 01:17:26;;;;;;;6.13;1.83;;;12.20;99.90;;;;;;5052872;28;20045;-64
2022/10/16 01:20:14;;;;;;;5.32;1.90;;;12.20;99.90;;;;;;5052097;28;20045;-64
2022/10/16 01:22:59;;;;;;;7.68;1.80;;;12.20;99.90;;;;;;5053498;28;20029;-64
2022/10/16 01:25:50;;;;;;;4.90;1.80;;;12.30;99.90;;;;;;5053930;28;20178;-64
2022/10/16 01:28:18;;;;;;;10.90;2.25;;;12.30;99.90;;;;;;5052257;28;20107;-64
2022/10/16 01:30:46;;;;;;;8.75;2.20;;;12.40;99.90;;;;;;5054369;28;20036;-64
2022/10/16 01:33:22;;;;;;;5.95;1.90;;;12.40;99.90;;;;;;5052072;28;20071;-64
2022/10/16 01:35:59;;;;;;;6.45;1.70;;;12.50;99.90;;;;;;5052590;28;20040;-64
2022/10/16 01:38:39;;;;;;;6.28;1.30;;;12.50;99.90;;;;;;5052582;28;20191;-64
2022/10/16 01:41:34;;;;;;;7.63;1.73;;;12.60;99.90;;;;;;5051830;28;20059;-64
2022/10/16 01:44:29;;;;;;;5.70;1.97;;;12.60;99.90;;;;;;5052863;28;20429;-64
2022/10/16 01:46:56;;;;;;;3.78;1.70;;;12.60;99.90;;;;;;5083061;28;20374;-64
2022/10/16 01:49:25;;;;;;;8.02;2.13;;;12.60;99.90;;;;;;5053634;28;20095;-64
2022/10/16 01:51:55;;;;;;;12.35;1.77;;;12.60;99.90;;;;;;5053722;28;20052;-64
2022/10/16 01:54:26;;;;;;;8.98;1.73;;;12.60;99.90;;;;;;5052480;28;20040;-64
2022/10/16 01:56:53;;;;;;;3.47;1.33;;;12.60;99.90;;;;;;5053656;28;20044;-64
2022/10/16 01:59:21;;;;;;;9.95;1.50;;;12.60;99.90;;;;;;5052059;28;20052;-64
2022/10/16 02:01:55;;;;;;;5.88;1.50;;;12.70;99.90;;;;;;5084918;28;20033;-64
2022/10/16 02:04:38;;;;;;;5.30;1.63;;;12.70;99.90;;;;;;5052172;28;20087;-64
2022/10/16 02:07:04;;;;;;;6.25;1.80;;;12.70;99.90;;;;;;5052457;28;20456;-63
2022/10/16 02:09:33;;;;;;;7.47;1.80;;;12.70;99.90;;;;;;5051228;28;20055;-63
2022/10/16 02:12:03;;;;;;;5.85;1.92;;;12.60;99.90;;;;;;5052115;28;20072;-64
2022/10/16 02:14:29;;;;;;;6.38;1.83;;;12.60;99.90;;;;;;5068500;28;20123;-64
2022/10/16 02:16:55;;;;;;;5.63;2.00;;;12.60;99.90;;;;;;5051197;28;20136;-64
2022/10/16 02:19:22;;;;;;;7.95;1.90;;;12.60;99.90;;;;;;5085565;28;20525;-64
2022/10/16 02:22:00;;;;;;;7.38;2.45;;;12.50;99.90;;;;;;5051560;28;20041;-64
2022/10/16 02:24:53;;;;;;;9.25;2.63;;;12.50;99.90;;;;;;5050926;28;20072;-64
2022/10/16 02:27:28;;;;;;;7.32;2.78;;;12.50;99.90;;;;;;5052882;28;20045;-64
2022/10/16 02:30:07;;;;;;;6.40;2.35;;;12.50;99.90;;;;;;5051928;28;20040;-64
2022/10/16 02:32:34;;;;;;;6.05;2.45;;;12.50;99.90;;;;;;5051847;28;20059;-64
2022/10/16 02:35:01;;;;;;;7.57;2.53;;;12.50;99.90;;;;;;5051553;28;20055;-64
2022/10/16 02:37:28;;;;;;;6.25;2.40;;;12.50;99.90;;;;;;5084189;28;20045;-64
2022/10/16 02:39:55;;;;;;;7.55;2.03;;;12.40;99.90;;;;;;5050730;28;20107;-64
2022/10/16 02:42:27;;;;;;;7.30;2.00;;;12.40;99.90;;;;;;5052406;28;20378;-64
2022/10/16 02:44:52;;;;;;;6.07;2.28;;;12.40;99.90;;;;;;5050720;28;20398;-64
2022/10/16 02:47:18;;;;;;;6.53;2.42;;;12.40;99.90;;;;;;5084774;28;20056;-64
2022/10/16 02:49:44;;;;;;;6.07;2.50;;;12.40;99.90;;;;;;5067967;28;20045;-64
2022/10/16 02:52:09;;;;;;;6.22;2.33;;;12.50;99.90;;;;;;5051789;28;20116;-64
2022/10/16 02:54:35;;;;;;;6.43;2.30;;;12.50;99.90;;;;;;5084759;28;20044;-64
2022/10/16 02:57:00;;;;;;;7.10;2.47;;;12.50;99.90;;;;;;5052054;28;20071;-64
2022/10/16 02:59:26;;;;;;;5.82;2.30;;;12.50;99.90;;;;;;5083999;28;20091;-64
2022/10/16 03:01:52;;;;;;;6.55;2.03;;;12.50;99.90;;;;;;5084570;28;20052;-64
2022/10/16 03:04:17;;;;;;;9.93;3.03;;;12.50;99.90;;;;;;5083912;28;20094;-64
2022/10/16 03:06:43;;;;;;;6.80;2.28;;;12.50;99.90;;;;;;5052306;28;20555;-64
2022/10/16 03:09:09;;;;;;;7.47;2.65;;;12.50;99.90;;;;;;5084372;28;20478;-64
2022/10/16 03:11:34;;;;;;;7.25;2.88;;;12.40;99.90;;;;;;5051400;28;20154;-64
2022/10/16 03:14:00;;;;;;;6.00;2.05;;;12.40;99.90;;;;;;5084343;28;20394;-64
2022/10/16 03:16:26;;;;;;;7.60;2.70;;;12.40;99.90;;;;;;5067539;28;20037;-64
2022/10/16 03:18:51;;;;;;;6.45;1.80;;;12.40;99.90;;;;;;5083676;28;20103;-64
2022/10/16 03:21:17;;;;;;;5.68;2.13;;;12.40;99.90;;;;;;5084299;28;20548;-64
2022/10/16 03:23:42;;;;;;;5.32;2.00;;;12.30;99.90;;;;;;5052367;28;20037;-64
2022/10/16 03:26:08;;;;;;;4.82;2.75;;;12.30;99.90;;;;;;5051005;28;20049;-64
2022/10/16 03:28:34;;;;;;;5.45;2.17;;;12.30;99.90;;;;;;5052108;28;20049;-64
2022/10/16 03:30:59;;;;;;;4.95;2.00;;;12.30;99.90;;;;;;5051962;28;20044;-64
2022/10/16 03:33:25;;;;;;;5.30;1.50;;;12.30;99.90;;;;;;5083436;28;20448;-64
2022/10/16 03:35:53;;;;;;;6.82;1.92;;;12.30;99.90;;;;;;5083943;28;20044;-64
2022/10/16 03:38:19;;;;;;;5.53;1.88;;;12.30;99.90;;;;;;5050734;28;20068;-64
2022/10/16 03:40:44;;;;;;;8.80;2.10;;;12.30;99.90;;;;;;5049923;28;20120;-64
2022/10/16 03:43:10;;;;;;;5.75;1.58;;;12.30;99.90;;;;;;5084147;28;20036;-64
2022/10/16 03:45:36;;;;;;;4.72;1.90;;;12.30;99.90;;;;;;5084312;28;20037;-64
2022/10/16 03:48:03;;;;;;;5.30;1.88;;;12.30;99.90;;;;;;5051102;28;20555;-64
2022/10/16 03:50:29;;;;;;;5.95;1.83;;;12.30;99.90;;;;;;5050460;28;20052;-64
2022/10/16 03:52:55;;;;;;;6.07;1.58;;;12.40;99.90;;;;;;5055061;28;20116;-64
2022/10/16 03:55:20;;;;;;;5.47;1.73;;;12.50;99.90;;;;;;5053989;28;20533;-64
2022/10/16 03:57:46;;;;;;;7.65;1.92;;;12.50;99.90;;;;;;5087842;28;20397;-64
2022/10/16 04:00:12;;;;;;;5.95;2.17;;;12.50;99.90;;;;;;5087891;28;20049;-64
2022/10/16 04:02:38;;;;;;;5.97;2.00;;;12.50;99.90;;;;;;5055111;28;20112;-64
2022/10/16 04:05:05;;;;;;;3.88;1.30;;;12.60;99.90;;;;;;5054294;28;20068;-64
2022/10/16 04:07:31;;;;;;;4.88;1.83;;;12.60;99.90;;;;;;5054420;28;20494;-64
2022/10/16 04:09:58;;;;;;;5.45;1.65;;;12.60;99.90;;;;;;5087254;28;20044;-64
2022/10/16 04:12:25;;;;;;;7.05;1.80;;;12.60;99.90;;;;;;5087907;28;20493;-64
2022/10/16 04:14:50;;;;;;;5.13;1.77;;;12.50;99.90;;;;;;5054666;28;20115;-64
2022/10/16 04:17:16;;;;;;;5.57;1.73;;;12.50;99.90;;;;;;5087643;28;20430;-64
2022/10/16 04:19:42;;;;;;;6.05;1.80;;;12.50;99.90;;;;;;5087692;28;20128;-64
2022/10/16 04:22:07;;;;;;;8.55;2.40;;;12.50;99.90;;;;;;5053551;28;20381;-63
2022/10/16 04:24:33;;;;;;;9.60;2.20;;;12.50;99.90;;;;;;5055116;28;20090;-64
2022/10/16 04:26:58;;;;;;;5.82;1.80;;;12.50;99.90;;;;;;5087183;28;20052;-63
2022/10/16 04:29:24;;;;;;;6.80;2.10;;;12.60;99.90;;;;;;5086645;28;20056;-63
2022/10/16 04:31:50;;;;;;;5.57;1.88;;;12.60;99.90;;;;;;5054981;28;20041;-63
2022/10/16 04:34:15;;;;;;;6.78;1.90;;;12.60;99.90;;;;;;5054734;28;20068;-63
2022/10/16 04:36:41;;;;;;;4.95;1.92;;;12.60;99.90;;;;;;5086960;28;20111;-63
2022/10/16 04:39:07;;;;;;;6.20;2.13;;;12.60;99.90;;;;;;5087231;28;20142;-63
2022/10/16 04:41:32;;;;;;;9.10;1.88;;;12.60;99.90;;;;;;5086977;28;20095;-63
2022/10/16 04:43:58;;;;;;;5.10;2.00;;;12.60;99.90;;;;;;5086224;28;20029;-63
2022/10/16 04:46:23;;;;;;;6.68;2.20;;;12.60;99.90;;;;;;5086931;28;20041;-63
2022/10/16 04:48:49;;;;;;;5.28;2.15;;;12.60;99.90;;;;;;5086819;28;20074;-64
2022/10/16 04:51:15;;;;;;;6.97;1.95;;;12.60;99.90;;;;;;5069482;28;20041;-63
2022/10/16 04:53:40;;;;;;;7.22;1.80;;;12.70;99.90;;;;;;5054971;28;20056;-63
2022/10/16 04:56:06;;;;;;;4.45;1.83;;;12.60;99.90;;;;;;5054738;28;20425;-63
2022/10/16 04:58:33;;;;;;;6.28;1.70;;;12.70;99.90;;;;;;5086026;28;20077;-64
2022/10/16 05:00:58;;;;;;;7.13;2.05;;;12.60;99.90;;;;;;5087305;28;20458;-64
2022/10/16 05:03:24;;;;;;;7.88;1.60;;;12.60;99.90;;;;;;5053454;28;20124;-64
2022/10/16 05:05:50;;;;;;;6.25;1.70;;;12.60;99.90;;;;;;5085979;28;20068;-64
2022/10/16 05:08:16;;;;;;;5.20;2.13;;;12.60;99.90;;;;;;5053359;28;20094;-64
2022/10/16 05:10:43;;;;;;;6.85;2.10;;;12.60;99.90;;;;;;5054815;28;20036;-64
2022/10/16 05:13:08;;;;;;;4.88;1.70;;;12.60;99.90;;;;;;5052371;28;20049;-64
2022/10/16 05:15:34;;;;;;;5.50;1.60;;;12.60;99.90;;;;;;5054450;28;20041;-64
2022/10/16 05:18:00;;;;;;;4.90;1.88;;;12.60;99.90;;;;;;5053305;28;20112;-64
2022/10/16 05:20:25;;;;;;;7.40;2.20;;;12.60;99.90;;;;;;5086823;28;20456;-64
2022/10/16 05:22:51;;;;;;;6.35;1.77;;;12.60;99.90;;;;;;5052925;28;20053;-64
2022/10/16 05:25:18;;;;;;;8.07;1.80;;;12.60;99.90;;;;;;5053074;28;20084;-64
2022/10/16 05:27:46;;;;;;;7.22;1.73;;;12.60;99.90;;;;;;5052993;28;20045;-64
2022/10/16 05:30:12;;;;;;;7.60;2.10;;;12.60;99.90;;;;;;5053900;28;20055;-63
2022/10/16 05:32:38;;;;;;;5.07;1.70;;;12.70;99.90;;;;;;5053454;28;20032;-64
2022/10/16 05:35:04;;;;;;;6.85;2.00;;;12.70;99.90;;;;;;5053993;28;20474;-64
2022/10/16 05:37:30;;;;;;;7.60;2.63;;;12.70;99.90;;;;;;5053705;28;20075;-64
2022/10/16 05:39:55;;;;;;;8.10;2.20;;;12.80;99.90;;;;;;5051744;28;20047;-64
2022/10/16 05:42:21;;;;;;;5.35;2.38;;;12.80;99.90;;;;;;5086279;28;20128;-64
2022/10/16 05:44:47;;;;;;;8.05;2.78;;;12.80;99.90;;;;;;5052252;28;20037;-64
2022/10/16 05:47:14;;;;;;;8.40;2.45;;;12.80;99.90;;;;;;5085067;28;20040;-64
2022/10/16 05:49:39;;;;;;;7.18;3.13;;;12.80;99.90;;;;;;5053995;28;20052;-64
2022/10/16 05:52:05;;;;;;;7.05;2.53;;;12.70;99.90;;;;;;5053503;28;20037;-64
2022/10/16 05:54:31;;;;;;;9.60;3.05;;;12.70;99.90;;;;;;5034909;28;20521;-64
2022/10/16 05:56:56;;;;;;;6.07;2.53;;;12.70;99.90;;;;;;5053430;28;20033;-64
2022/10/16 05:59:22;;;;;;;9.88;3.22;;;12.70;99.90;;;;;;5085596;28;20059;-64
2022/10/16 06:01:48;;;;;;;11.00;2.97;;;12.70;99.90;;;;;;5084988;28;20053;-64
2022/10/16 06:04:13;;;;;;;9.77;3.13;;;12.70;99.90;;;;;;5053857;28;20537;-64
2022/10/16 06:06:39;;;;;;;6.53;3.08;;;12.70;99.90;;;;;;5085944;28;20080;-64
2022/10/16 06:09:05;;;;;;;7.50;2.88;;;12.70;99.90;;;;;;5084744;28;20124;-64
2022/10/16 06:11:33;;;;;;;6.45;3.08;;;12.80;99.90;;;;;;5085494;28;20085;-64
2022/10/16 06:14:02;;;;;;;6.47;2.25;;;12.80;99.90;;;;;;5052954;28;20036;-64
2022/10/16 06:16:28;;;;;;;6.18;2.78;;;12.80;99.90;;;;;;5051257;28;20077;-64
2022/10/16 06:18:55;;;;;;;6.38;2.63;;;12.80;99.90;;;;;;5085267;28;20107;-64
2022/10/16 06:21:26;;;;;;;6.07;2.53;;;12.70;99.90;;;;;;5051193;28;20386;-64
2022/10/16 06:23:53;;;;;;;6.95;3.08;;;12.80;99.90;;;;;;5051749;28;20048;-64
2022/10/16 06:26:21;;;;;;;7.00;3.03;;;12.80;99.90;;;;;;5068108;28;20041;-64
2022/10/16 06:28:47;;;;;;;7.95;2.40;;;12.80;99.90;;;;;;5050707;28;20052;-64
2022/10/16 06:31:13;;;;;;;9.77;2.95;;;12.80;99.90;;;;;;5052789;28;20045;-64
2022/10/16 06:33:39;;;;;;;5.65;2.20;;;12.80;99.90;;;;;;5052826;28;20110;-64
2022/10/16 06:36:14;;;;;;;5.93;2.33;;;12.80;99.90;;;;;;5050910;28;20423;-64
2022/10/16 06:38:40;;;;;;;4.78;2.20;;;12.80;99.90;;;;;;5053043;28;20033;-64
2022/10/16 06:41:08;;;;;;;7.35;2.22;;;12.80;99.90;;;;;;5051450;28;20123;-64
2022/10/16 06:43:37;;;;;;;9.52;2.80;;;12.80;99.90;;;;;;5084059;28;20115;-64
2022/10/16 06:46:04;;;;;;;7.45;2.33;;;12.90;99.90;;;;;;5085113;28;20045;-64
2022/10/16 06:48:30;;;;;;;7.57;2.63;;;12.90;99.90;;;;;;5052700;28;20033;-64
2022/10/16 06:51:08;;;;;;;8.32;2.80;;;12.90;99.90;;;;;;5051661;28;20478;-64
2022/10/16 06:53:36;;;;;;;8.05;2.67;;;13.00;99.90;;;;;;5051168;28;20049;-64
2022/10/16 06:56:17;;;;;;;8.60;2.50;;;13.00;99.90;;;;;;5051276;28;20067;-64
2022/10/16 06:58:43;;;;;;;9.25;2.83;;;13.00;99.90;;;;;;5050591;28;20045;-64
2022/10/16 07:01:09;;;;;;;8.63;2.58;;;13.00;99.90;;;;;;5067702;28;20032;-64
2022/10/16 07:03:40;;;;;;;7.30;2.83;;;13.00;99.90;;;;;;5050498;28;20072;-64
2022/10/16 07:06:07;;;;;;;8.00;2.03;;;13.00;99.90;;;;;;5052514;28;20045;-64
2022/10/16 07:08:34;;;;;;;13.38;2.63;;;13.00;99.90;;;;;;5050867;28;20088;-64
2022/10/16 07:11:05;;;;;;;10.48;2.60;;;13.00;99.90;;;;;;5051182;28;20045;-64
2022/10/16 07:13:33;;;;;;;9.60;2.50;;;13.00;99.90;;;;;;5050603;28;20048;-64
2022/10/16 07:16:11;;;;;;;10.18;2.22;;;13.00;99.90;;;;;;5034447;28;20041;-64
2022/10/16 07:18:38;;;;;;;4.63;1.80;;;13.00;99.90;;;;;;5058039;28;20077;-64
2022/10/16 07:21:13;;;;;;;6.15;1.98;;;13.00;99.90;;;;;;5035018;28;20049;-65
2022/10/16 07:23:39;;;;;;;5.65;1.60;;;13.00;99.90;;;;;;5052288;28;20033;-65
2022/10/16 07:26:06;;;;;;;7.20;2.80;;;13.00;99.90;;;;;;5025340;28;20046;-65
2022/10/16 07:28:34;;;;;;;9.20;2.15;;;13.00;99.90;;;;;;5033455;28;20132;-65
2022/10/16 07:31:10;;;;;;;8.70;2.47;;;13.10;99.90;;;;;;5081284;28;20044;-65
2022/10/16 07:33:38;;;;;;;7.75;2.40;;;13.00;99.90;;;;;;5047461;28;20048;-64
2022/10/16 07:36:05;;;;;;;5.90;2.22;;;13.00;99.90;;;;;;5048747;28;20036;-65
2022/10/16 07:38:31;;;;;;;7.85;2.72;;;13.00;99.90;;;;;;5047761;28;20405;-66
2022/10/16 07:40:58;;;;;;;9.05;3.03;;;13.10;99.90;;;;;;5063566;28;20492;-65
2022/10/16 07:43:26;;;;;;;8.48;3.45;;;13.10;99.90;;;;;;5047988;28;20072;-64
2022/10/16 07:45:52;;;;;;;6.60;2.63;;;13.20;99.90;;;;;;5047216;28;20055;-65
2022/10/16 07:48:19;;;;;;;8.50;3.03;;;13.20;99.90;;;;;;5079210;28;20405;-64
2022/10/16 07:50:45;;;;;;;8.63;3.15;;;13.30;99.90;;;;;;5049079;28;20053;-64
2022/10/16 07:53:11;;;;;;;10.30;3.58;;;13.30;99.90;;;;;;5047424;28;20049;-64
2022/10/16 07:55:38;;;;;;;8.02;3.50;;;13.30;99.90;;;;;;5049430;28;20374;-64
2022/10/16 07:58:04;;;;;;;12.57;3.78;;;13.30;99.90;;;;;;5049014;28;20037;-64
2022/10/16 08:00:31;;;;;;;9.10;3.80;;;13.40;99.90;;;;;;5030203;28;20091;-64
2022/10/16 08:02:59;;;;;;;11.57;4.20;;;13.40;99.90;;;;;;5048979;28;20029;-64
2022/10/16 08:05:29;;;;;;;8.95;3.78;;;13.50;99.90;;;;;;5067305;28;20443;-64
2022/10/16 08:07:56;;;;;;;10.35;4.15;;;13.60;99.90;;;;;;5060735;28;20041;-62
2022/10/16 08:10:24;;;;;;;9.85;3.53;;;13.70;99.90;;;;;;5049161;28;20442;-65
2022/10/16 08:12:50;;;;;;;8.85;2.85;;;13.70;99.90;;;;;;5045068;28;20073;-65
2022/10/16 08:15:16;;;;;;;6.45;2.10;;;13.70;99.90;;;;;;5046935;28;20063;-65
2022/10/16 08:17:42;;;;;;;6.75;2.88;;;13.70;99.90;;;;;;5047782;28;20056;-65
2022/10/16 08:20:08;;;;;;;5.95;2.30;;;13.70;99.90;;;;;;5048884;28;20494;-63
2022/10/16 08:22:34;;;;;;;5.35;1.92;;;13.70;99.90;;;;;;5046608;28;20087;-63
2022/10/16 08:25:00;;;;;;;5.95;1.90;;;13.70;99.90;;;;;;5047890;28;20036;-63
2022/10/16 08:27:31;;;;;;;5.97;2.22;;;13.70;99.90;;;;;;5048949;28;20057;-63
2022/10/16 08:29:57;;;;;;;7.32;1.90;;;13.70;99.90;;;;;;5047059;28;20041;-63
2022/10/16 08:32:22;;;;;;;6.30;2.13;;;13.80;99.90;;;;;;5046883;28;20110;-62
2022/10/16 08:34:48;;;;;;;4.70;2.20;;;13.80;99.90;;;;;;5080617;28;20414;-63
2022/10/16 08:37:14;;;;;;;7.03;2.33;;;13.80;99.90;;;;;;5047842;28;20489;-63
2022/10/16 08:39:40;;;;;;;7.53;2.05;;;13.80;99.90;;;;;;5050215;28;20045;-63
2022/10/16 08:42:44;;;;;;;6.07;2.00;;;13.70;99.90;;;;;;5034024;28;20446;-63
2022/10/16 08:45:32;;;;;;;7.50;2.65;;;13.70;99.90;;;;;;5039055;28;20087;-64
2022/10/16 08:48:32;;;;;;;8.57;2.33;;;13.80;99.90;;;;;;5049697;28;20988;-64
2022/10/16 08:50:58;;;;;;;9.25;3.65;;;14.00;99.90;;;;;;5022882;28;20636;-64
2022/10/16 08:53:36;;;;;;;10.07;2.55;;;14.10;99.90;;;;;;5050965;28;20123;-64
2022/10/16 08:56:01;;;;;;;8.82;2.95;;;14.30;99.90;;;;;;5049633;28;20036;-63
2022/10/16 08:58:29;;;;;;;8.05;2.22;;;14.40;99.90;;;;;;5051090;28;20506;-65
2022/10/16 09:01:01;;;;;;;7.43;2.75;;;14.40;99.90;;;;;;5049640;28;20863;-65
2022/10/16 09:03:44;;;;;;;9.57;2.90;;;14.50;99.90;;;;;;5050872;28;20405;-65
2022/10/16 09:06:19;;;;;;;8.23;2.42;;;14.60;99.90;;;;;;5051016;28;20048;-65
2022/10/16 09:08:56;;;;;;;11.05;2.95;;;14.60;99.90;;;;;;5050769;28;20048;-66
2022/10/16 09:11:33;;;;;;;9.07;3.38;;;14.70;99.90;;;;;;5051088;28;20105;-63
2022/10/16 09:14:27;;;;;;;9.68;3.30;;;14.70;99.90;;;;;;5049773;28;20120;-63
2022/10/16 09:17:01;;;;;;;9.65;3.20;;;14.70;99.90;;;;;;5032187;28;20099;-63
2022/10/16 09:19:48;;;;;;;13.05;4.00;;;14.70;99.90;;;;;;5050603;28;20410;-64
2022/10/16 09:22:16;;;;;;;8.90;2.22;;;14.80;99.90;;;;;;5064266;28;20033;-63
2022/10/16 09:24:42;;;;;;;6.00;2.38;;;14.80;99.90;;;;;;5048434;28;20036;-63
2022/10/16 09:27:17;;;;;;;9.18;3.72;;;14.80;99.90;;;;;;5049230;28;20456;-64
2022/10/16 09:29:42;;;;;;;6.22;2.30;;;14.80;99.90;;;;;;5050367;28;20051;-64
2022/10/16 09:32:15;;;;;;;9.40;2.83;;;14.80;99.90;;;;;;5079078;28;20049;-64
2022/10/16 09:34:52;;;;;;;13.68;3.00;;;14.80;99.90;;;;;;5040972;28;20053;-63
2022/10/16 09:37:20;;;;;;;10.27;2.63;;;14.80;99.90;;;;;;5048329;28;20596;-62
2022/10/16 09:39:51;;;;;;;8.77;3.03;;;14.80;99.90;;;;;;5047599;28;20043;-62
2022/10/16 09:42:32;;;;;;;11.20;2.97;;;14.90;99.90;;;;;;5050194;28;20033;-62
2022/10/16 09:44:58;;;;;;;8.93;2.90;;;14.90;99.90;;;;;;5048419;28;20040;-62
2022/10/16 09:47:27;;;;;;;7.63;2.53;;;15.00;99.90;;;;;;5048450;28;20135;-63
2022/10/16 09:50:02;;;;;;;9.98;2.65;;;15.00;99.90;;;;;;5046223;28;20077;-64
2022/10/16 09:52:28;;;;;;;;;;;15.00;99.90;;;;;;5045915;28;20397;-64
2022/10/16 09:55:12;;;;;;;11.35;2.90;;;15.00;99.90;;;;;;5048979;28;19921;-63
2022/10/16 09:57:48;;;;;;;9.43;2.67;;;15.10;99.90;;;;;;5048874;28;20052;-64
2022/10/16 10:00:17;;;;;;;8.40;2.38;;;15.10;99.90;;;;;;5048010;28;20148;-64
2022/10/16 10:02:44;;;;;;;8.32;2.30;;;15.20;99.90;;;;;;5066203;28;20037;-64
2022/10/16 10:05:28;;;;;;;8.48;2.90;;;15.20;99.90;;;;;;5049073;28;20033;-64
2022/10/16 10:07:59;;;;;;;7.32;2.50;;;15.30;99.90;;;;;;5049298;28;20047;-62
2022/10/16 10:10:30;;;;;;;10.50;2.88;;;15.30;99.90;;;;;;5051877;28;20048;-62
2022/10/16 10:12:56;;;;;;;10.50;2.92;;;15.40;99.90;;;;;;5048984;28;20446;-62
2022/10/16 10:15:24;;;;;;;12.57;2.80;;;15.50;99.90;;;;;;5047627;28;21200;-63
2022/10/16 10:17:50;;;;;;;10.95;2.22;;;15.60;99.90;;;;;;5031944;28;20094;-63
2022/10/16 10:20:34;;;;;;;9.32;2.88;;;15.70;99.90;;;;;;5049432;28;20120;-63
2022/10/16 10:23:01;;;;;;;12.40;2.53;;;15.90;99.90;;;;;;5048516;28;20600;-62
2022/10/16 10:25:35;;;;;;;11.85;2.88;;;15.90;99.90;;;;;;5047348;28;20134;-63
2022/10/16 10:28:32;;;;;;;9.02;2.50;;;15.90;99.90;;;;;;5081171;28;20053;-63
2022/10/16 10:31:24;;;;;;;12.30;2.67;;;15.90;99.90;;;;;;5047803;28;20466;-63
2022/10/16 10:34:04;;;;;;;11.95;3.28;;;15.80;99.90;;;;;;5065648;28;21067;-62
2022/10/16 10:36:37;;;;;;;6.97;2.10;;;15.70;99.90;;;;;;5035713;28;20155;-64
2022/10/16 10:39:22;;;;;;;12.07;3.40;;;15.60;99.90;;;;;;5044171;28;20051;-64
2022/10/16 10:42:05;;;;;;;14.85;4.13;;;15.50;99.90;;;;;;5047138;28;20138;-64
2022/10/16 10:44:53;;;;;;;15.13;3.58;;;15.30;99.90;;;;;;5047995;28;20483;-64
2022/10/16 10:47:47;;;;;;;16.88;3.88;;;15.20;99.90;;;;;;5044612;28;20470;-62
2022/10/16 10:50:28;;;;;;;14.38;2.97;;;15.20;99.90;;;;;;5047054;28;20051;-70
2022/10/16 10:53:24;;;;;;;10.95;3.33;;;15.20;99.90;;;;;;5048595;28;20098;-66
2022/10/16 10:56:41;;;;;;;11.80;3.00;;;15.30;99.90;;;;;;5049668;28;20180;-63
2022/10/16 10:59:25;;;;;;;;;;;15.40;99.90;;;;;;5051980;28;20490;-63
2022/10/16 11:02:20;;;;;;;14.50;3.75;;;15.50;99.90;;;;;;5048389;28;19921;-62
2022/10/16 11:05:15;;;;;;;10.75;4.07;;;15.70;99.90;;;;;;5028799;28;20068;-63
2022/10/16 11:07:47;;;;;;;12.85;3.05;;;15.80;99.90;;;;;;5050050;28;20072;-61
2022/10/16 11:10:20;;;;;;;14.00;3.67;;;15.90;99.90;;;;;;5083227;28;20036;-61
2022/10/16 11:12:52;;;;;;;13.02;3.30;;;16.10;99.90;;;;;;5050833;28;20087;-61
2022/10/16 11:15:29;;;;;;;13.88;3.10;;;16.10;99.90;;;;;;5051948;28;20052;-63
2022/10/16 11:18:05;;;;;;;11.32;3.25;;;16.10;99.90;;;;;;5049882;28;20045;-63
2022/10/16 11:20:54;;;;;;;10.05;2.63;;;16.00;99.90;;;;;;5051053;28;20489;-61
2022/10/16 11:23:55;;;;;;;9.38;2.47;;;16.00;99.90;;;;;;5051978;28;20475;-61
2022/10/16 11:26:26;;;;;;;12.20;2.58;;;15.90;99.90;;;;;;5029559;28;20041;-61
2022/10/16 11:28:58;;;;;;;12.02;2.47;;;15.90;99.90;;;;;;5050775;28;20057;-63
2022/10/16 11:31:42;;;;;;;7.82;2.10;;;15.80;99.90;;;;;;5051053;28;20508;-62
2022/10/16 11:34:33;;;;;;;12.32;2.25;;;15.90;99.90;;;;;;5050566;28;20051;-62
2022/10/16 11:37:21;;;;;;;9.57;3.08;;;15.80;99.90;;;;;;5051965;28;20036;-63
2022/10/16 11:39:49;;;;;;;7.85;2.42;;;15.90;99.90;;;;;;5049982;28;20053;-64
2022/10/16 11:42:41;;;;;;;9.57;2.35;;;15.90;99.90;;;;;;5051879;28;20060;-62
2022/10/16 11:45:06;;;;;;;7.85;2.47;;;15.80;99.90;;;;;;5083439;28;20383;-63
2022/10/16 11:47:45;;;;;;;13.52;3.55;;;15.80;99.90;;;;;;5084102;28;20048;-62
2022/10/16 11:50:17;;;;;;;9.95;2.47;;;15.80;99.90;;;;;;5051931;28;20048;-63
2022/10/16 11:53:15;;;;;;;6.43;2.33;;;15.80;99.90;;;;;;5051420;28;20048;-63
2022/10/16 11:55:42;;;;;;;11.15;2.70;;;16.00;99.90;;;;;;5050770;28;20037;-62
2022/10/16 11:58:08;;;;;;;12.77;3.00;;;15.90;99.90;;;;;;5050308;28;20486;-63
2022/10/16 12:00:47;;;;;;;9.07;2.35;;;15.90;99.90;;;;;;5083022;28;20048;-62
2022/10/16 12:03:59;;;;;;;9.10;3.20;;;15.90;99.90;;;;;;5050261;28;20044;-62
2022/10/16 12:06:42;;;;;;;12.02;2.35;;;15.90;99.90;;;;;;5049847;28;20044;-62
2022/10/16 12:09:17;;;;;;;10.00;2.53;;;15.80;99.90;;;;;;5051545;28;20067;-62
2022/10/16 12:11:42;;;;;;;9.57;2.65;;;15.90;99.90;;;;;;5050521;28;20103;-62
2022/10/16 12:14:11;;;;;;;10.32;2.60;;;16.00;99.90;;;;;;5086674;28;20045;-62
2022/10/16 12:16:56;;;;;;;9.77;2.53;;;16.00;99.90;;;;;;5087617;28;20037;-62
2022/10/16 12:19:22;;;;;;;;;;;16.00;99.90;;;;;;5054671;28;20067;-63
2022/10/16 12:21:49;;;;;;;12.70;3.03;;;16.00;99.90;;;;;;5054624;28;19967;-63
2022/10/16 12:24:35;;;;;;;13.65;3.28;;;16.00;99.90;;;;;;5054058;28;20478;-63
2022/10/16 12:27:02;;;;;;;13.50;3.00;;;16.00;99.90;;;;;;5052979;28;20114;-63
2022/10/16 12:29:40;;;;;;;9.35;2.22;;;16.00;99.90;;;;;;5070782;28;20401;-63
2022/10/16 12:32:21;;;;;;;11.50;3.35;;;16.00;99.90;;;;;;5036940;28;20044;-62
2022/10/16 12:34:48;;;;;;;23.23;3.67;;;16.10;99.90;;;;;;5054439;28;20120;-63
2022/10/16 12:37:49;;;;;;;9.68;2.75;;;16.10;99.90;;;;;;5055017;28;20080;-63
2022/10/16 12:40:32;;;;;;;9.60;2.70;;;16.10;99.90;;;;;;5049434;28;20394;-63
2022/10/16 12:42:58;;;;;;;12.25;2.72;;;16.20;99.90;;;;;;5049263;28;20045;-64
2022/10/16 12:45:33;;;;;;;9.25;3.00;;;16.10;99.90;;;;;;5053470;28;20417;-62
2022/10/16 12:48:01;;;;;;;6.07;2.13;;;16.10;99.90;;;;;;5053594;28;20049;-63
2022/10/16 12:50:38;;;;;;;11.13;2.33;;;16.10;99.90;;;;;;5053507;28;20107;-63
2022/10/16 12:53:21;;;;;;;12.05;3.20;;;16.00;99.90;;;;;;5053703;28;20116;-62
2022/10/16 12:56:13;;;;;;;14.00;4.15;;;16.00;99.90;;;;;;5052549;28;20052;-63
2022/10/16 12:59:19;;;;;;;11.45;2.60;;;16.00;99.90;;;;;;5053646;28;20037;-63
2022/10/16 13:02:06;;;;;;;10.52;3.17;;;16.00;99.90;;;;;;5054228;28;20052;-63
2022/10/16 13:04:45;;;;;;;14.27;3.15;;;15.90;99.90;;;;;;5069781;28;20052;-63
2022/10/16 13:07:35;;;;;;;12.55;2.88;;;15.90;99.90;;;;;;5086976;28;20045;-63
2022/10/16 13:10:24;;;;;;;8.02;2.40;;;15.80;99.90;;;;;;5053614;28;20086;-63